sensor_id;sensor_type;location;lat;lon;timestamp;temperature;humidity
935;DHT22;454;53.254;10.400;2023-03-23T05:02:15;10.80;99.90
935;DHT22;454;53.254;10.400;2023-03-23T05:04:45;10.80;99.90
935;DHT22;454;53.254;10.400;2023-03-23T05:07:12;10.80;99.90
935;DHT22;454;53.254;10.400;2023-03-23T05:09:39;10.80;99.90
935;DHT22;454;53.254;10.400;2023-03-23T05:12:07;10.80;99.90
935;DHT22;454;53.254;10.400;2023-03-23T05:14:35;10.80;99.90
935;DHT22;454;53.254;10.400;2023-03-23T05:17:02;10.80;99.90
935;DHT22;454;53.254;10.400;2023-03-23T05:19:30;10.80;99.90
935;DHT22;454;53.254;10.400;2023-03-23T05:21:58;10.80;99.90
935;DHT22;454;53.254;10.400;2023-03-23T05:24:29;10.80;99.90
935;DHT22;454;53.254;10.400;2023-03-23T05:26:56;10.80;99.90
935;DHT22;454;53.254;10.400;2023-03-23T05:29:23;10.80;99.90
935;DHT22;454;53.254;10.400;2023-03-23T05:31:51;10.80;99.90
935;DHT22;454;53.254;10.400;2023-03-23T05:34:18;10.80;99.90
935;DHT22;454;53.254;10.400;2023-03-23T05:36:46;10.80;99.90
935;DHT22;454;53.254;10.400;2023-03-23T05:39:13;10.80;99.90
935;DHT22;454;53.254;10.400;2023-03-23T05:41:41;10.80;99.90
935;DHT22;454;53.254;10.400;2023-03-23T05:44:09;10.80;99.90
935;DHT22;454;53.254;10.400;2023-03-23T05:46:38;10.80;99.90
935;DHT22;454;53.254;10.400;2023-03-23T05:49:05;10.80;99.90
935;DHT22;454;53.254;10.400;2023-03-23T05:51:32;10.80;99.90
935;DHT22;454;53.254;10.400;2023-03-23T05:54:01;10.80;99.90
935;DHT22;454;53.254;10.400;2023-03-23T05:56:28;10.80;99.90
935;DHT22;454;53.254;10.400;2023-03-23T05:58:56;10.80;99.90
935;DHT22;454;53.254;10.400;2023-03-23T06:01:23;10.80;99.90
935;DHT22;454;53.254;10.400;2023-03-23T06:03:49;10.80;99.90
935;DHT22;454;53.254;10.400;2023-03-23T06:06:19;10.80;99.90
935;DHT22;454;53.254;10.400;2023-03-23T06:08:46;10.80;99.90
935;DHT22;454;53.254;10.400;2023-03-23T06:11:15;10.90;99.90
935;DHT22;454;53.254;10.400;2023-03-23T06:13:42;10.90;99.90
935;DHT22;454;53.254;10.400;2023-03-23T06:16:10;10.90;99.90
935;DHT22;454;53.254;10.400;2023-03-23T06:18:36;10.90;99.90
935;DHT22;454;53.254;10.400;2023-03-23T06:21:06;10.90;99.90
935;DHT22;454;53.254;10.400;2023-03-23T06:23:33;10.90;99.90
935;DHT22;454;53.254;10.400;2023-03-23T06:26:02;10.90;99.90
935;DHT22;454;53.254;10.400;2023-03-23T06:28:32;10.90;99.90
935;DHT22;454;53.254;10.400;2023-03-23T06:31:00;11.00;99.90
935;DHT22;454;53.254;10.400;2023-03-23T06:33:27;11.00;99.90
935;DHT22;454;53.254;10.400;2023-03-23T06:35:54;11.00;99.90
935;DHT22;454;53.254;10.400;2023-03-23T06:38:21;11.00;99.90
935;DHT22;454;53.254;10.400;2023-03-23T06:40:48;11.00;99.90
935;DHT22;454;53.254;10.400;2023-03-23T06:43:20;11.10;99.90
935;DHT22;454;53.254;10.400;2023-03-23T06:45:48;11.10;99.90
935;DHT22;454;53.254;10.400;2023-03-23T06:48:16;11.10;99.90
935;DHT22;454;53.254;10.400;2023-03-23T06:50:43;11.20;99.90
935;DHT22;454;53.254;10.400;2023-03-23T06:53:11;11.20;99.90
935;DHT22;454;53.254;10.400;2023-03-23T06:55:39;11.20;99.90
935;DHT22;454;53.254;10.400;2023-03-23T06:58:06;11.20;99.90
935;DHT22;454;53.254;10.400;2023-03-23T07:00:33;11.20;99.90
935;DHT22;454;53.254;10.400;2023-03-23T07:03:01;11.20;99.90
935;DHT22;454;53.254;10.400;2023-03-23T07:05:29;11.30;99.90
935;DHT22;454;53.254;10.400;2023-03-23T07:07:56;11.30;99.90
935;DHT22;454;53.254;10.400;2023-03-23T07:10:23;11.30;99.90
935;DHT22;454;53.254;10.400;2023-03-23T07:12:50;11.40;99.90
935;DHT22;454;53.254;10.400;2023-03-23T07:15:17;11.50;99.90
935;DHT22;454;53.254;10.400;2023-03-23T07:17:43;11.60;99.90
935;DHT22;454;53.254;10.400;2023-03-23T07:20:12;11.60;99.90
935;DHT22;454;53.254;10.400;2023-03-23T07:22:40;11.70;99.90
935;DHT22;454;53.254;10.400;2023-03-23T07:25:07;11.70;99.90
935;DHT22;454;53.254;10.400;2023-03-23T07:27:34;11.70;99.90
935;DHT22;454;53.254;10.400;2023-03-23T07:30:01;11.80;99.90
935;DHT22;454;53.254;10.400;2023-03-23T07:32:28;11.80;99.90
935;DHT22;454;53.254;10.400;2023-03-23T07:34:55;11.90;99.90
935;DHT22;454;53.254;10.400;2023-03-23T07:37:24;11.90;99.90
935;DHT22;454;53.254;10.400;2023-03-23T07:39:50;12.00;99.90
935;DHT22;454;53.254;10.400;2023-03-23T07:42:18;12.10;99.90
935;DHT22;454;53.254;10.400;2023-03-23T07:44:44;12.20;99.90
935;DHT22;454;53.254;10.400;2023-03-23T07:47:11;12.20;99.90
935;DHT22;454;53.254;10.400;2023-03-23T07:49:38;12.20;99.90
935;DHT22;454;53.254;10.400;2023-03-23T07:52:05;12.10;99.90
935;DHT22;454;53.254;10.400;2023-03-23T07:54:33;12.00;99.90
935;DHT22;454;53.254;10.400;2023-03-23T07:57:00;11.90;99.90
935;DHT22;454;53.254;10.400;2023-03-23T07:59:27;11.80;99.90
935;DHT22;454;53.254;10.400;2023-03-23T08:01:53;11.70;99.90
935;DHT22;454;53.254;10.400;2023-03-23T08:04:23;11.70;99.90
935;DHT22;454;53.254;10.400;2023-03-23T08:06:50;11.70;99.90
935;DHT22;454;53.254;10.400;2023-03-23T08:09:20;11.60;99.90
935;DHT22;454;53.254;10.400;2023-03-23T08:11:48;11.60;99.90
935;DHT22;454;53.254;10.400;2023-03-23T08:14:20;11.60;99.90
935;DHT22;454;53.254;10.400;2023-03-23T08:16:54;11.60;99.90
935;DHT22;454;53.254;10.400;2023-03-23T08:19:27;11.80;99.90
935;DHT22;454;53.254;10.400;2023-03-23T08:22:01;11.90;99.90
935;DHT22;454;53.254;10.400;2023-03-23T08:24:30;12.00;99.90
935;DHT22;454;53.254;10.400;2023-03-23T08:27:00;12.20;99.90
935;DHT22;454;53.254;10.400;2023-03-23T08:29:31;12.30;99.90
935;DHT22;454;53.254;10.400;2023-03-23T08:31:59;12.40;99.90
935;DHT22;454;53.254;10.400;2023-03-23T08:34:35;12.40;99.90
935;DHT22;454;53.254;10.400;2023-03-23T08:37:04;12.50;99.90
935;DHT22;454;53.254;10.400;2023-03-23T08:39:36;12.60;99.90
935;DHT22;454;53.254;10.400;2023-03-23T08:42:11;12.70;99.90
935;DHT22;454;53.254;10.400;2023-03-23T08:44:42;12.70;99.90
935;DHT22;454;53.254;10.400;2023-03-23T08:47:15;12.70;99.90
935;DHT22;454;53.254;10.400;2023-03-23T08:49:46;12.70;99.90
935;DHT22;454;53.254;10.400;2023-03-23T08:52:20;12.70;99.90
935;DHT22;454;53.254;10.400;2023-03-23T08:54:48;12.70;99.90
935;DHT22;454;53.254;10.400;2023-03-23T08:57:17;12.70;99.90
935;DHT22;454;53.254;10.400;2023-03-23T08:59:47;12.80;99.90
935;DHT22;454;53.254;10.400;2023-03-23T09:02:15;12.80;99.90
935;DHT22;454;53.254;10.400;2023-03-23T09:04:44;12.80;99.90
935;DHT22;454;53.254;10.400;2023-03-23T09:07:15;12.80;99.90
935;DHT22;454;53.254;10.400;2023-03-23T09:09:48;12.80;99.90
935;DHT22;454;53.254;10.400;2023-03-23T09:12:16;12.70;99.90
935;DHT22;454;53.254;10.400;2023-03-23T09:14:46;12.70;99.90
935;DHT22;454;53.254;10.400;2023-03-23T09:17:18;12.60;99.90
935;DHT22;454;53.254;10.400;2023-03-23T09:19:49;12.60;99.90
935;DHT22;454;53.254;10.400;2023-03-23T09:22:19;12.50;99.90
935;DHT22;454;53.254;10.400;2023-03-23T09:24:51;12.50;99.90
935;DHT22;454;53.254;10.400;2023-03-23T09:27:21;12.50;99.90
935;DHT22;454;53.254;10.400;2023-03-23T09:29:54;12.50;99.90
935;DHT22;454;53.254;10.400;2023-03-23T09:32:24;12.50;99.90
935;DHT22;454;53.254;10.400;2023-03-23T09:34:55;12.50;99.90
935;DHT22;454;53.254;10.400;2023-03-23T09:37:23;12.40;99.90
935;DHT22;454;53.254;10.400;2023-03-23T09:40:13;12.30;99.90
935;DHT22;454;53.254;10.400;2023-03-23T09:45:37;12.20;99.90
935;DHT22;454;53.254;10.400;2023-03-23T09:48:29;12.20;99.90
935;DHT22;454;53.254;10.400;2023-03-23T09:51:09;12.10;99.90
935;DHT22;454;53.254;10.400;2023-03-23T09:53:45;12.10;99.90
935;DHT22;454;53.254;10.400;2023-03-23T09:56:19;12.10;99.90
935;DHT22;454;53.254;10.400;2023-03-23T09:58:56;12.00;99.90
935;DHT22;454;53.254;10.400;2023-03-23T10:01:31;12.00;99.90
935;DHT22;454;53.254;10.400;2023-03-23T10:04:12;12.10;99.90
935;DHT22;454;53.254;10.400;2023-03-23T10:06:46;12.10;99.90
935;DHT22;454;53.254;10.400;2023-03-23T10:09:15;12.30;99.90
935;DHT22;454;53.254;10.400;2023-03-23T10:11:50;12.40;99.90
935;DHT22;454;53.254;10.400;2023-03-23T10:14:29;12.40;99.90
935;DHT22;454;53.254;10.400;2023-03-23T10:17:04;12.40;99.90
935;DHT22;454;53.254;10.400;2023-03-23T10:19:40;12.40;99.90
935;DHT22;454;53.254;10.400;2023-03-23T10:22:10;12.30;99.90
935;DHT22;454;53.254;10.400;2023-03-23T10:24:43;12.30;99.90
935;DHT22;454;53.254;10.400;2023-03-23T10:27:19;12.30;99.90
935;DHT22;454;53.254;10.400;2023-03-23T10:29:53;12.20;99.90
935;DHT22;454;53.254;10.400;2023-03-23T10:32:40;12.20;99.90
935;DHT22;454;53.254;10.400;2023-03-23T10:35:13;12.20;99.90
935;DHT22;454;53.254;10.400;2023-03-23T10:37:44;12.30;99.90
935;DHT22;454;53.254;10.400;2023-03-23T10:40:15;12.30;99.90
935;DHT22;454;53.254;10.400;2023-03-23T10:42:43;12.30;99.90
935;DHT22;454;53.254;10.400;2023-03-23T10:45:16;12.40;99.90
935;DHT22;454;53.254;10.400;2023-03-23T10:47:49;12.40;99.90
935;DHT22;454;53.254;10.400;2023-03-23T10:50:22;12.40;99.90
935;DHT22;454;53.254;10.400;2023-03-23T10:52:51;12.40;99.90
935;DHT22;454;53.254;10.400;2023-03-23T10:55:20;12.30;99.90
935;DHT22;454;53.254;10.400;2023-03-23T10:57:59;12.20;99.90
935;DHT22;454;53.254;10.400;2023-03-23T11:00:30;12.10;99.90
935;DHT22;454;53.254;10.400;2023-03-23T11:02:59;12.00;99.90
935;DHT22;454;53.254;10.400;2023-03-23T11:05:34;11.90;99.90
935;DHT22;454;53.254;10.400;2023-03-23T11:08:01;11.90;99.90
935;DHT22;454;53.254;10.400;2023-03-23T11:10:35;11.80;99.90
935;DHT22;454;53.254;10.400;2023-03-23T11:13:03;11.80;99.90
935;DHT22;454;53.254;10.400;2023-03-23T11:15:38;11.80;99.90
935;DHT22;454;53.254;10.400;2023-03-23T11:18:06;11.80;99.90
935;DHT22;454;53.254;10.400;2023-03-23T11:20:37;11.90;99.90
935;DHT22;454;53.254;10.400;2023-03-23T11:23:10;11.90;99.90
935;DHT22;454;53.254;10.400;2023-03-23T11:25:57;11.90;99.90
935;DHT22;454;53.254;10.400;2023-03-23T11:28:32;12.00;99.90
935;DHT22;454;53.254;10.400;2023-03-23T11:31:02;12.00;99.90
935;DHT22;454;53.254;10.400;2023-03-23T11:33:30;12.10;99.90
935;DHT22;454;53.254;10.400;2023-03-23T11:36:01;12.20;99.90
935;DHT22;454;53.254;10.400;2023-03-23T11:38:28;12.20;99.90
935;DHT22;454;53.254;10.400;2023-03-23T11:40:55;12.30;99.90
935;DHT22;454;53.254;10.400;2023-03-23T11:43:23;12.30;99.90
935;DHT22;454;53.254;10.400;2023-03-23T11:45:56;12.40;99.90
935;DHT22;454;53.254;10.400;2023-03-23T11:48:30;12.40;99.90
935;DHT22;454;53.254;10.400;2023-03-23T11:51:02;12.30;99.90
935;DHT22;454;53.254;10.400;2023-03-23T11:53:37;12.30;99.90
935;DHT22;454;53.254;10.400;2023-03-23T11:56:13;12.30;99.90
935;DHT22;454;53.254;10.400;2023-03-23T11:58:42;12.40;99.90
935;DHT22;454;53.254;10.400;2023-03-23T12:01:16;12.40;99.90
935;DHT22;454;53.254;10.400;2023-03-23T12:04:02;12.40;99.90
935;DHT22;454;53.254;10.400;2023-03-23T12:06:36;12.30;99.90
935;DHT22;454;53.254;10.400;2023-03-23T12:09:16;12.30;99.90
935;DHT22;454;53.254;10.400;2023-03-23T12:11:53;12.30;99.90
935;DHT22;454;53.254;10.400;2023-03-23T12:14:29;12.80;99.90
935;DHT22;454;53.254;10.400;2023-03-23T12:17:06;12.40;99.90
935;DHT22;454;53.254;10.400;2023-03-23T12:19:40;12.40;99.90
935;DHT22;454;53.254;10.400;2023-03-23T12:22:18;12.50;99.90
935;DHT22;454;53.254;10.400;2023-03-23T12:25:01;12.50;99.90
935;DHT22;454;53.254;10.400;2023-03-23T12:27:37;12.70;99.90
935;DHT22;454;53.254;10.400;2023-03-23T12:30:20;12.90;99.90
935;DHT22;454;53.254;10.400;2023-03-23T12:33:03;13.20;99.90
935;DHT22;454;53.254;10.400;2023-03-23T12:35:45;13.40;99.90
935;DHT22;454;53.254;10.400;2023-03-23T12:38:26;13.40;99.90
935;DHT22;454;53.254;10.400;2023-03-23T12:41:02;13.40;99.90
935;DHT22;454;53.254;10.400;2023-03-23T12:43:37;13.30;99.90
935;DHT22;454;53.254;10.400;2023-03-23T12:46:14;13.20;99.90
935;DHT22;454;53.254;10.400;2023-03-23T12:48:47;13.20;99.90
935;DHT22;454;53.254;10.400;2023-03-23T12:51:21;13.20;99.90
935;DHT22;454;53.254;10.400;2023-03-23T12:53:55;13.30;99.90
935;DHT22;454;53.254;10.400;2023-03-23T12:56:29;13.40;99.90
935;DHT22;454;53.254;10.400;2023-03-23T12:59:03;13.40;99.90
935;DHT22;454;53.254;10.400;2023-03-23T13:01:36;13.40;99.90
935;DHT22;454;53.254;10.400;2023-03-23T13:04:07;13.30;99.90
935;DHT22;454;53.254;10.400;2023-03-23T13:06:38;13.30;99.90
935;DHT22;454;53.254;10.400;2023-03-23T13:09:09;13.20;99.90
935;DHT22;454;53.254;10.400;2023-03-23T13:11:39;13.20;99.90
935;DHT22;454;53.254;10.400;2023-03-23T13:14:21;13.10;99.90
935;DHT22;454;53.254;10.400;2023-03-23T13:16:57;13.00;99.90
935;DHT22;454;53.254;10.400;2023-03-23T13:19:33;13.00;99.90
935;DHT22;454;53.254;10.400;2023-03-23T13:22:06;13.00;99.90
935;DHT22;454;53.254;10.400;2023-03-23T13:24:46;13.20;99.90
935;DHT22;454;53.254;10.400;2023-03-23T13:27:16;13.30;99.90
935;DHT22;454;53.254;10.400;2023-03-23T13:29:44;13.40;99.90
935;DHT22;454;53.254;10.400;2023-03-23T13:32:15;13.50;99.90
935;DHT22;454;53.254;10.400;2023-03-23T13:34:43;13.60;99.90
935;DHT22;454;53.254;10.400;2023-03-23T13:37:20;13.60;99.90
935;DHT22;454;53.254;10.400;2023-03-23T13:39:50;13.70;99.90
935;DHT22;454;53.254;10.400;2023-03-23T13:42:20;13.70;99.90
935;DHT22;454;53.254;10.400;2023-03-23T13:45:07;13.70;99.90
935;DHT22;454;53.254;10.400;2023-03-23T13:47:38;13.80;99.90
935;DHT22;454;53.254;10.400;2023-03-23T13:50:11;13.80;99.90
935;DHT22;454;53.254;10.400;2023-03-23T13:52:50;13.90;99.90
935;DHT22;454;53.254;10.400;2023-03-23T13:55:38;13.90;99.90
935;DHT22;454;53.254;10.400;2023-03-23T13:58:11;13.80;99.90
935;DHT22;454;53.254;10.400;2023-03-23T14:00:47;13.80;99.90
935;DHT22;454;53.254;10.400;2023-03-23T14:03:18;14.00;99.90
935;DHT22;454;53.254;10.400;2023-03-23T14:05:48;13.90;99.90
935;DHT22;454;53.254;10.400;2023-03-23T14:08:23;13.90;99.90
935;DHT22;454;53.254;10.400;2023-03-23T14:10:53;13.80;99.90
935;DHT22;454;53.254;10.400;2023-03-23T14:13:31;13.80;99.90
935;DHT22;454;53.254;10.400;2023-03-23T14:16:00;13.80;99.90
935;DHT22;454;53.254;10.400;2023-03-23T14:18:32;13.70;99.90
935;DHT22;454;53.254;10.400;2023-03-23T14:20:59;13.70;99.90
935;DHT22;454;53.254;10.400;2023-03-23T14:23:31;13.60;99.90
935;DHT22;454;53.254;10.400;2023-03-23T14:26:01;13.70;99.90
935;DHT22;454;53.254;10.400;2023-03-23T14:28:36;13.70;99.90
935;DHT22;454;53.254;10.400;2023-03-23T14:31:04;13.70;99.90
935;DHT22;454;53.254;10.400;2023-03-23T14:33:31;13.70;99.90
935;DHT22;454;53.254;10.400;2023-03-23T14:35:59;13.70;99.90
935;DHT22;454;53.254;10.400;2023-03-23T14:38:28;13.70;99.90
935;DHT22;454;53.254;10.400;2023-03-23T14:41:01;13.70;99.90
935;DHT22;454;53.254;10.400;2023-03-23T14:43:29;13.70;99.90
935;DHT22;454;53.254;10.400;2023-03-23T14:46:01;13.70;99.90
935;DHT22;454;53.254;10.400;2023-03-23T14:48:28;13.60;99.90
935;DHT22;454;53.254;10.400;2023-03-23T14:50:57;13.60;99.90
935;DHT22;454;53.254;10.400;2023-03-23T14:53:26;13.60;99.90
935;DHT22;454;53.254;10.400;2023-03-23T14:56:06;13.60;99.90
935;DHT22;454;53.254;10.400;2023-03-23T14:58:33;13.60;99.90
935;DHT22;454;53.254;10.400;2023-03-23T15:01:04;13.60;99.90
935;DHT22;454;53.254;10.400;2023-03-23T15:03:34;13.60;99.90
935;DHT22;454;53.254;10.400;2023-03-23T15:06:05;13.70;99.90
935;DHT22;454;53.254;10.400;2023-03-23T15:08:34;13.70;99.90
935;DHT22;454;53.254;10.400;2023-03-23T15:11:11;13.70;99.90
935;DHT22;454;53.254;10.400;2023-03-23T15:13:43;13.70;99.90
935;DHT22;454;53.254;10.400;2023-03-23T15:16:14;13.70;99.90
935;DHT22;454;53.254;10.400;2023-03-23T15:18:49;13.70;99.90
935;DHT22;454;53.254;10.400;2023-03-23T15:21:23;13.70;99.90
935;DHT22;454;53.254;10.400;2023-03-23T15:23:51;13.80;99.90
935;DHT22;454;53.254;10.400;2023-03-23T15:26:25;13.80;99.90
935;DHT22;454;53.254;10.400;2023-03-23T15:29:01;13.70;99.90
935;DHT22;454;53.254;10.400;2023-03-23T15:31:29;13.60;99.90
935;DHT22;454;53.254;10.400;2023-03-23T15:34:02;13.50;99.90
935;DHT22;454;53.254;10.400;2023-03-23T15:36:33;13.50;99.90
935;DHT22;454;53.254;10.400;2023-03-23T15:39:00;13.50;99.90
935;DHT22;454;53.254;10.400;2023-03-23T15:41:31;13.40;99.90
935;DHT22;454;53.254;10.400;2023-03-23T15:44:10;13.40;99.90
935;DHT22;454;53.254;10.400;2023-03-23T15:46:48;13.20;99.90
935;DHT22;454;53.254;10.400;2023-03-23T15:49:15;13.00;99.90
935;DHT22;454;53.254;10.400;2023-03-23T15:51:42;12.80;99.90
935;DHT22;454;53.254;10.400;2023-03-23T15:54:12;12.70;99.90
935;DHT22;454;53.254;10.400;2023-03-23T15:56:41;12.70;99.90
935;DHT22;454;53.254;10.400;2023-03-23T15:59:08;12.70;99.90
935;DHT22;454;53.254;10.400;2023-03-23T16:01:36;12.60;99.90
935;DHT22;454;53.254;10.400;2023-03-23T16:04:05;12.60;99.90
935;DHT22;454;53.254;10.400;2023-03-23T16:06:34;12.40;99.90
935;DHT22;454;53.254;10.400;2023-03-23T16:09:01;12.40;99.90
935;DHT22;454;53.254;10.400;2023-03-23T16:11:29;12.40;99.90
935;DHT22;454;53.254;10.400;2023-03-23T16:13:58;12.40;99.90
935;DHT22;454;53.254;10.400;2023-03-23T16:16:27;12.40;99.90
935;DHT22;454;53.254;10.400;2023-03-23T16:18:55;12.20;99.90
935;DHT22;454;53.254;10.400;2023-03-23T16:21:22;12.10;99.90
935;DHT22;454;53.254;10.400;2023-03-23T16:23:48;12.00;99.90
935;DHT22;454;53.254;10.400;2023-03-23T16:26:15;11.90;99.90
935;DHT22;454;53.254;10.400;2023-03-23T16:28:43;11.90;99.90
935;DHT22;454;53.254;10.400;2023-03-23T16:31:11;11.90;99.90
935;DHT22;454;53.254;10.400;2023-03-23T16:33:38;11.80;99.90
935;DHT22;454;53.254;10.400;2023-03-23T16:36:05;11.80;99.90
935;DHT22;454;53.254;10.400;2023-03-23T16:38:32;11.70;99.90
935;DHT22;454;53.254;10.400;2023-03-23T16:40:59;11.70;99.90
935;DHT22;454;53.254;10.400;2023-03-23T16:43:26;11.60;99.90
935;DHT22;454;53.254;10.400;2023-03-23T16:45:55;11.50;99.90
935;DHT22;454;53.254;10.400;2023-03-23T16:48:23;11.50;99.90
935;DHT22;454;53.254;10.400;2023-03-23T16:50:52;11.50;99.90
935;DHT22;454;53.254;10.400;2023-03-23T16:53:20;11.40;99.90
935;DHT22;454;53.254;10.400;2023-03-23T16:55:46;11.40;99.90
935;DHT22;454;53.254;10.400;2023-03-23T16:58:13;11.40;99.90
935;DHT22;454;53.254;10.400;2023-03-23T17:00:41;11.30;99.90
935;DHT22;454;53.254;10.400;2023-03-23T17:03:08;11.30;99.90
935;DHT22;454;53.254;10.400;2023-03-23T17:05:36;11.30;99.90
935;DHT22;454;53.254;10.400;2023-03-23T17:08:04;11.20;99.90
935;DHT22;454;53.254;10.400;2023-03-23T17:10:31;11.10;99.90
935;DHT22;454;53.254;10.400;2023-03-23T17:12:58;11.10;99.90
935;DHT22;454;53.254;10.400;2023-03-23T17:15:25;11.10;99.90
935;DHT22;454;53.254;10.400;2023-03-23T17:17:51;11.00;99.90
935;DHT22;454;53.254;10.400;2023-03-23T17:20:19;11.00;99.90
935;DHT22;454;53.254;10.400;2023-03-23T17:22:47;11.00;99.90
935;DHT22;454;53.254;10.400;2023-03-23T17:25:14;10.90;99.90
935;DHT22;454;53.254;10.400;2023-03-23T17:27:41;10.90;99.90
935;DHT22;454;53.254;10.400;2023-03-23T17:30:08;10.90;99.90
935;DHT22;454;53.254;10.400;2023-03-23T17:32:35;10.80;99.90
935;DHT22;454;53.254;10.400;2023-03-23T17:35:02;10.80;99.90
935;DHT22;454;53.254;10.400;2023-03-23T17:37:30;10.80;99.90
935;DHT22;454;53.254;10.400;2023-03-23T17:39:59;10.70;99.90
935;DHT22;454;53.254;10.400;2023-03-23T17:42:25;10.70;99.90
935;DHT22;454;53.254;10.400;2023-03-23T17:44:52;10.70;99.90
935;DHT22;454;53.254;10.400;2023-03-23T17:47:19;10.60;99.90
935;DHT22;454;53.254;10.400;2023-03-23T17:49:46;10.60;99.90
935;DHT22;454;53.254;10.400;2023-03-23T17:52:13;10.60;99.90
935;DHT22;454;53.254;10.400;2023-03-23T17:54:40;10.50;99.90
935;DHT22;454;53.254;10.400;2023-03-23T17:57:09;10.50;99.90
935;DHT22;454;53.254;10.400;2023-03-23T17:59:36;10.60;99.90
935;DHT22;454;53.254;10.400;2023-03-23T18:02:03;10.60;99.90
935;DHT22;454;53.254;10.400;2023-03-23T18:04:30;10.70;99.90
935;DHT22;454;53.254;10.400;2023-03-23T18:06:57;10.70;99.90
935;DHT22;454;53.254;10.400;2023-03-23T18:09:24;10.90;99.90
935;DHT22;454;53.254;10.400;2023-03-23T18:11:52;10.90;99.90
935;DHT22;454;53.254;10.400;2023-03-23T18:14:23;10.90;99.90
935;DHT22;454;53.254;10.400;2023-03-23T18:16:50;10.90;99.90
935;DHT22;454;53.254;10.400;2023-03-23T18:19:17;10.90;99.90
935;DHT22;454;53.254;10.400;2023-03-23T18:21:44;10.90;99.90
935;DHT22;454;53.254;10.400;2023-03-23T18:24:11;10.80;99.90
935;DHT22;454;53.254;10.400;2023-03-23T18:26:38;10.80;99.90
935;DHT22;454;53.254;10.400;2023-03-23T18:29:04;10.80;99.90
935;DHT22;454;53.254;10.400;2023-03-23T18:31:32;10.90;99.90
935;DHT22;454;53.254;10.400;2023-03-23T18:34:04;10.90;99.90
935;DHT22;454;53.254;10.400;2023-03-23T18:36:31;10.90;99.90
935;DHT22;454;53.254;10.400;2023-03-23T18:38:58;10.80;99.90
935;DHT22;454;53.254;10.400;2023-03-23T18:41:25;10.80;99.90
935;DHT22;454;53.254;10.400;2023-03-23T18:43:52;10.80;99.90
935;DHT22;454;53.254;10.400;2023-03-23T18:46:18;10.80;99.90
935;DHT22;454;53.254;10.400;2023-03-23T18:48:46;10.80;99.90
935;DHT22;454;53.254;10.400;2023-03-23T18:51:13;10.80;99.90
935;DHT22;454;53.254;10.400;2023-03-23T18:53:40;10.90;99.90
935;DHT22;454;53.254;10.400;2023-03-23T18:56:09;10.80;99.90
935;DHT22;454;53.254;10.400;2023-03-23T18:58:36;10.80;99.90
935;DHT22;454;53.254;10.400;2023-03-23T19:01:05;10.80;99.90
935;DHT22;454;53.254;10.400;2023-03-23T19:03:32;10.80;99.90
935;DHT22;454;53.254;10.400;2023-03-23T19:06:01;10.80;99.90
935;DHT22;454;53.254;10.400;2023-03-23T19:08:29;10.80;99.90
935;DHT22;454;53.254;10.400;2023-03-23T19:10:57;10.80;99.90
935;DHT22;454;53.254;10.400;2023-03-23T19:13:25;10.80;99.90
935;DHT22;454;53.254;10.400;2023-03-23T19:15:52;10.80;99.90
935;DHT22;454;53.254;10.400;2023-03-23T19:18:19;10.80;99.90
935;DHT22;454;53.254;10.400;2023-03-23T19:20:46;10.80;99.90
935;DHT22;454;53.254;10.400;2023-03-23T19:23:17;10.80;99.90
935;DHT22;454;53.254;10.400;2023-03-23T19:25:44;10.70;99.90
935;DHT22;454;53.254;10.400;2023-03-23T19:28:11;10.80;99.90
935;DHT22;454;53.254;10.400;2023-03-23T19:30:42;10.80;99.90
935;DHT22;454;53.254;10.400;2023-03-23T19:33:10;10.80;99.90
935;DHT22;454;53.254;10.400;2023-03-23T19:35:37;10.90;99.90
935;DHT22;454;53.254;10.400;2023-03-23T19:38:04;10.90;99.90
935;DHT22;454;53.254;10.400;2023-03-23T19:40:32;10.90;99.90
935;DHT22;454;53.254;10.400;2023-03-23T19:43:01;10.90;99.90
935;DHT22;454;53.254;10.400;2023-03-23T19:45:28;10.90;99.90
935;DHT22;454;53.254;10.400;2023-03-23T19:47:55;10.80;99.90
935;DHT22;454;53.254;10.400;2023-03-23T19:50:22;10.80;99.90
935;DHT22;454;53.254;10.400;2023-03-23T19:52:48;10.80;99.90
935;DHT22;454;53.254;10.400;2023-03-23T19:55:15;10.80;99.90
935;DHT22;454;53.254;10.400;2023-03-23T19:57:43;10.80;99.90
935;DHT22;454;53.254;10.400;2023-03-23T20:00:11;10.80;99.90
935;DHT22;454;53.254;10.400;2023-03-23T20:02:39;10.80;99.90
935;DHT22;454;53.254;10.400;2023-03-23T20:05:06;10.80;99.90
935;DHT22;454;53.254;10.400;2023-03-23T20:07:33;10.80;99.90
935;DHT22;454;53.254;10.400;2023-03-23T20:10:00;10.70;99.90
935;DHT22;454;53.254;10.400;2023-03-23T20:12:27;10.70;99.90
935;DHT22;454;53.254;10.400;2023-03-23T20:14:55;10.70;99.90
935;DHT22;454;53.254;10.400;2023-03-23T20:17:23;10.70;99.90
935;DHT22;454;53.254;10.400;2023-03-23T20:19:50;10.70;99.90
935;DHT22;454;53.254;10.400;2023-03-23T20:22:17;10.70;99.90
935;DHT22;454;53.254;10.400;2023-03-23T20:24:44;10.60;99.90
935;DHT22;454;53.254;10.400;2023-03-23T20:27:11;10.70;99.90
935;DHT22;454;53.254;10.400;2023-03-23T20:29:38;10.60;99.90
935;DHT22;454;53.254;10.400;2023-03-23T20:32:07;10.60;99.90
935;DHT22;454;53.254;10.400;2023-03-23T20:34:34;10.60;99.90
935;DHT22;454;53.254;10.400;2023-03-23T20:37:01;10.50;99.90
935;DHT22;454;53.254;10.400;2023-03-23T20:39:30;10.50;99.90
935;DHT22;454;53.254;10.400;2023-03-23T20:42:00;10.60;99.90
935;DHT22;454;53.254;10.400;2023-03-23T20:44:28;10.50;99.90
935;DHT22;454;53.254;10.400;2023-03-23T20:46:57;10.50;99.90
935;DHT22;454;53.254;10.400;2023-03-23T20:49:25;10.50;99.90
935;DHT22;454;53.254;10.400;2023-03-23T20:51:53;10.50;99.90
935;DHT22;454;53.254;10.400;2023-03-23T20:54:20;10.40;99.90
935;DHT22;454;53.254;10.400;2023-03-23T20:56:47;10.40;99.90
935;DHT22;454;53.254;10.400;2023-03-23T20:59:15;10.40;99.90
935;DHT22;454;53.254;10.400;2023-03-23T21:01:42;10.40;99.90
935;DHT22;454;53.254;10.400;2023-03-23T21:04:13;10.40;99.90
935;DHT22;454;53.254;10.400;2023-03-23T21:06:44;10.40;99.90
935;DHT22;454;53.254;10.400;2023-03-23T21:09:13;10.40;99.90
935;DHT22;454;53.254;10.400;2023-03-23T21:11:41;10.40;99.90
935;DHT22;454;53.254;10.400;2023-03-23T21:14:09;10.40;99.90
935;DHT22;454;53.254;10.400;2023-03-23T21:16:36;10.40;99.90
935;DHT22;454;53.254;10.400;2023-03-23T21:19:03;10.40;99.90
935;DHT22;454;53.254;10.400;2023-03-23T21:21:30;10.50;99.90
935;DHT22;454;53.254;10.400;2023-03-23T21:24:00;10.50;99.90
935;DHT22;454;53.254;10.400;2023-03-23T21:26:28;10.50;99.90
935;DHT22;454;53.254;10.400;2023-03-23T21:28:55;10.60;99.90
935;DHT22;454;53.254;10.400;2023-03-23T21:31:25;10.60;99.90
935;DHT22;454;53.254;10.400;2023-03-23T21:33:55;10.60;99.90
935;DHT22;454;53.254;10.400;2023-03-23T21:36:22;10.60;99.90
935;DHT22;454;53.254;10.400;2023-03-23T21:38:51;10.70;99.90